Time;durP1;ratioP1;P1;durP2;ratioP2;P2;SDS_P1;SDS_P2;PMS_P1;PMS_P2;Temp;Humidity;BMP_temperature;BMP_pressure;BME280_temperature;BME280_humidity;BME280_pressure;Samples;Min_cycle;Max_cycle;Signal;HPM_P1;HPM_P2
2022/09/21 00:00:37;;;;;;;15.55;13.93;;;20.40;99.90;;;;;;6146998;28;89068;-62
2022/09/21 00:03:41;;;;;;;15.52;13.93;;;20.40;99.90;;;;;;6134206;28;89125;-61
2022/09/21 00:06:43;;;;;;;14.60;13.18;;;20.40;99.90;;;;;;6153317;28;89337;-62
2022/09/21 00:09:46;;;;;;;15.38;13.77;;;20.40;99.90;;;;;;6145706;28;89071;-61
2022/09/21 00:12:49;;;;;;;14.63;13.13;;;20.30;99.90;;;;;;6148820;28;90713;-62
2022/09/21 00:15:51;;;;;;;15.23;13.63;;;20.30;99.90;;;;;;6133122;28;88505;-61
2022/09/21 00:18:54;;;;;;;15.57;14.07;;;20.30;99.90;;;;;;6146129;28;89043;-62
2022/09/21 00:21:56;;;;;;;14.55;13.05;;;20.40;99.90;;;;;;6145469;28;89122;-62
2022/09/21 00:25:00;;;;;;;14.35;12.85;;;20.40;99.90;;;;;;6142805;28;90002;-62
2022/09/21 00:28:02;;;;;;;14.35;12.85;;;20.40;99.90;;;;;;6153480;28;89015;-62
2022/09/21 00:31:05;;;;;;;14.50;13.02;;;20.30;99.90;;;;;;6149088;28;89006;-61
2022/09/21 00:34:07;;;;;;;14.98;13.48;;;20.30;99.90;;;;;;6144936;28;89085;-62
2022/09/21 00:37:10;;;;;;;14.52;13.02;;;20.30;99.90;;;;;;6134410;28;89226;-62
2022/09/21 00:40:13;;;;;;;15.20;13.60;;;20.30;99.90;;;;;;6135298;28;87924;-62
2022/09/21 00:43:17;;;;;;;14.98;13.40;;;20.30;99.90;;;;;;6156515;28;89519;-62
2022/09/21 00:46:26;;;;;;;14.63;13.13;;;20.40;99.90;;;;;;6157194;28;88654;-62
2022/09/21 00:49:29;;;;;;;14.25;12.85;;;20.30;99.90;;;;;;6145730;28;89100;-61
2022/09/21 00:52:33;;;;;;;14.35;12.85;;;20.30;99.90;;;;;;6155081;28;89193;-62
2022/09/21 00:55:42;;;;;;;14.65;13.13;;;20.30;99.90;;;;;;6147300;28;90127;-62
2022/09/21 00:58:48;;;;;;;14.23;12.80;;;20.30;99.90;;;;;;6132294;28;89029;-62
2022/09/21 01:01:51;;;;;;;13.60;12.20;;;20.30;99.90;;;;;;6151892;28;89137;-61
2022/09/21 01:04:54;;;;;;;15.38;13.68;;;20.30;99.90;;;;;;6147362;28;87797;-62
2022/09/21 01:08:00;;;;;;;14.45;12.95;;;20.40;99.90;;;;;;6169274;28;89110;-62
2022/09/21 01:11:27;;;;;;;14.27;12.85;;;20.30;99.90;;;;;;6167749;28;87939;-62
2022/09/21 01:14:56;;;;;;;13.85;12.45;;;20.30;99.90;;;;;;6145611;28;89348;-62
2022/09/21 01:18:06;;;;;;;13.32;12.02;;;20.30;99.90;;;;;;6149621;28;88587;-61
2022/09/21 01:21:18;;;;;;;13.90;12.48;;;20.30;99.90;;;;;;6137984;28;89266;-62
2022/09/21 01:24:41;;;;;;;13.93;12.52;;;20.30;99.90;;;;;;6165731;28;89198;-62
2022/09/21 01:27:57;;;;;;;13.30;11.93;;;20.30;99.90;;;;;;6149411;28;90035;-62
2022/09/21 01:31:04;;;;;;;13.77;12.38;;;20.30;99.90;;;;;;6148805;28;89065;-62
2022/09/21 01:34:12;;;;;;;13.25;11.95;;;20.30;99.90;;;;;;6147272;28;89132;-61
2022/09/21 01:37:20;;;;;;;13.10;11.80;;;20.30;99.90;;;;;;6147703;28;89099;-61
2022/09/21 01:40:25;;;;;;;12.77;11.48;;;20.30;99.90;;;;;;6168513;28;89355;-62
2022/09/21 01:43:32;;;;;;;13.18;11.88;;;20.30;99.90;;;;;;6132975;28;89020;-62
2022/09/21 01:46:37;;;;;;;12.65;11.35;;;20.30;99.90;;;;;;6152330;28;88959;-62
2022/09/21 01:49:43;;;;;;;12.73;11.48;;;20.30;99.90;;;;;;6163666;28;88614;-62
2022/09/21 01:52:49;;;;;;;13.15;11.77;;;20.30;99.90;;;;;;6155800;28;87983;-62
2022/09/21 01:55:55;;;;;;;13.10;11.70;;;20.30;99.90;;;;;;6154441;28;89091;-61
2022/09/21 01:59:06;;;;;;;13.05;11.73;;;20.30;99.90;;;;;;6153877;28;89986;-62
2022/09/21 02:02:16;;;;;;;12.35;11.07;;;20.30;99.90;;;;;;6152740;28;89481;-61
2022/09/21 02:05:21;;;;;;;12.23;10.98;;;20.30;99.90;;;;;;6143786;28;89187;-62
2022/09/21 02:08:25;;;;;;;12.18;10.98;;;20.30;99.90;;;;;;6155461;28;89396;-62
2022/09/21 02:11:27;;;;;;;11.75;10.55;;;20.30;99.90;;;;;;6156424;28;89112;-62
2022/09/21 02:14:32;;;;;;;12.07;10.88;;;20.30;99.90;;;;;;6159005;28;89004;-62
2022/09/21 02:17:45;;;;;;;11.75;10.55;;;20.30;99.90;;;;;;6143496;28;89073;-62
2022/09/21 02:20:53;;;;;;;12.05;10.75;;;20.30;99.90;;;;;;6145488;28;88451;-62
2022/09/21 02:24:05;;;;;;;11.73;10.55;;;20.30;99.90;;;;;;6147946;28;89049;-62
2022/09/21 02:27:16;;;;;;;11.73;10.52;;;20.30;99.90;;;;;;6136471;28;89115;-62
2022/09/21 02:30:21;;;;;;;12.27;11.02;;;20.30;99.90;;;;;;6138490;28;90013;-62
2022/09/21 02:33:31;;;;;;;12.15;10.95;;;20.30;99.90;;;;;;6152941;28;89096;-62
2022/09/21 02:36:42;;;;;;;12.00;10.80;;;20.30;99.90;;;;;;6158995;28;89014;-62
2022/09/21 02:39:53;;;;;;;12.30;11.00;;;20.30;99.90;;;;;;6146770;28;89087;-62
2022/09/21 02:43:00;;;;;;;12.35;11.05;;;20.30;99.90;;;;;;6154373;28;89042;-62
2022/09/21 02:46:07;;;;;;;12.65;11.35;;;20.30;99.90;;;;;;6143942;28;89076;-62
2022/09/21 02:49:16;;;;;;;12.15;10.85;;;20.30;99.90;;;;;;6159099;28;88882;-62
2022/09/21 02:52:20;;;;;;;11.30;10.20;;;20.30;99.90;;;;;;6146712;28;88663;-62
2022/09/21 02:55:24;;;;;;;12.07;10.88;;;20.30;99.90;;;;;;6158820;28;87985;-62
2022/09/21 02:58:28;;;;;;;12.18;10.85;;;20.20;99.90;;;;;;6158275;28;88753;-62
2022/09/21 03:01:31;;;;;;;11.75;10.63;;;20.20;99.90;;;;;;6153252;28;89983;-62
2022/09/21 03:04:35;;;;;;;12.02;10.77;;;20.30;99.90;;;;;;6147674;28;88698;-62
2022/09/21 03:07:38;;;;;;;11.90;10.70;;;20.20;99.90;;;;;;6159627;28;89490;-62
2022/09/21 03:10:40;;;;;;;12.43;11.15;;;20.30;99.90;;;;;;6145736;28;89049;-62
2022/09/21 03:13:43;;;;;;;11.90;10.68;;;20.30;99.90;;;;;;6155608;28;89068;-62
2022/09/21 03:16:45;;;;;;;11.85;10.65;;;20.30;99.90;;;;;;6159430;28;88832;-61
2022/09/21 03:19:49;;;;;;;12.25;10.95;;;20.30;99.90;;;;;;6144898;28;89102;-62
2022/09/21 03:22:50;;;;;;;12.00;10.80;;;20.20;99.90;;;;;;6139974;28;87476;-61
2022/09/21 03:25:53;;;;;;;11.98;10.77;;;20.30;99.90;;;;;;6157861;28;89548;-61
2022/09/21 03:28:55;;;;;;;12.98;11.60;;;20.30;99.90;;;;;;6157339;28;89064;-62
2022/09/21 03:31:57;;;;;;;12.48;11.20;;;20.20;99.90;;;;;;6157059;28;90033;-62
2022/09/21 03:35:00;;;;;;;12.35;11.05;;;20.30;99.90;;;;;;6134315;28;89802;-62
2022/09/21 03:38:03;;;;;;;11.82;10.63;;;20.20;99.90;;;;;;6157621;28;89038;-61
2022/09/21 03:41:05;;;;;;;11.48;10.38;;;20.20;99.90;;;;;;6154493;28;89086;-62
2022/09/21 03:44:07;;;;;;;12.02;10.82;;;20.20;99.90;;;;;;6152246;28;88007;-61
2022/09/21 03:47:09;;;;;;;12.40;11.13;;;20.30;99.90;;;;;;6139953;28;89149;-61
2022/09/21 03:50:12;;;;;;;12.15;10.93;;;20.20;99.90;;;;;;6149600;28;89915;-61
2022/09/21 03:53:15;;;;;;;12.70;11.40;;;20.30;99.90;;;;;;6154767;28;88295;-62
2022/09/21 03:56:17;;;;;;;12.15;10.93;;;20.20;99.90;;;;;;6151734;28;89091;-61
2022/09/21 03:59:19;;;;;;;11.48;10.27;;;20.20;99.90;;;;;;6158413;28;89142;-62
2022/09/21 04:02:21;;;;;;;11.90;10.70;;;20.20;99.90;;;;;;6134192;28;90092;-62
2022/09/21 04:05:26;;;;;;;12.48;11.18;;;20.30;99.90;;;;;;6153645;28;89033;-62
2022/09/21 04:08:28;;;;;;;12.27;11.07;;;20.20;99.90;;;;;;6148890;28;89375;-62
2022/09/21 04:11:32;;;;;;;11.82;10.57;;;20.20;99.90;;;;;;6144756;28;91301;-62
2022/09/21 04:14:34;;;;;;;11.88;10.68;;;20.20;99.90;;;;;;6152945;28;90009;-62
2022/09/21 04:17:36;;;;;;;12.18;10.98;;;20.20;99.90;;;;;;6155765;28;89071;-61
2022/09/21 04:20:40;;;;;;;11.48;10.38;;;20.20;99.90;;;;;;6149934;28;89259;-61
2022/09/21 04:23:42;;;;;;;11.68;10.48;;;20.20;99.90;;;;;;6153170;28;88639;-61
2022/09/21 04:26:44;;;;;;;11.65;10.45;;;20.20;99.90;;;;;;6147650;28;89960;-61
2022/09/21 04:29:46;;;;;;;11.95;10.75;;;20.20;99.90;;;;;;6146456;28;89189;-61
2022/09/21 04:32:48;;;;;;;10.60;9.50;;;20.20;99.90;;;;;;6141956;28;90040;-61
2022/09/21 04:35:56;;;;;;;12.00;10.80;;;20.20;99.90;;;;;;6155946;28;89496;-61
2022/09/21 04:38:58;;;;;;;10.93;9.82;;;20.20;99.90;;;;;;6149697;28;89106;-62
2022/09/21 04:42:00;;;;;;;11.13;10.02;;;20.20;99.90;;;;;;6151984;28;89129;-61
2022/09/21 04:45:02;;;;;;;10.90;9.80;;;20.20;99.90;;;;;;6143997;28;89078;-61
2022/09/21 04:48:04;;;;;;;10.73;9.73;;;20.20;99.90;;;;;;6145472;28;87942;-61
2022/09/21 04:51:08;;;;;;;11.40;10.20;;;20.20;99.90;;;;;;6151158;28;89421;-61
2022/09/21 04:54:11;;;;;;;11.50;10.30;;;20.20;99.90;;;;;;6146162;28;87359;-61
2022/09/21 04:57:13;;;;;;;11.40;10.23;;;20.20;99.90;;;;;;6145352;28;87952;-61
2022/09/21 05:00:15;;;;;;;11.70;10.38;;;20.20;99.90;;;;;;6145646;28;89065;-61
2022/09/21 05:03:17;;;;;;;11.68;10.48;;;20.20;99.90;;;;;;6144997;28;90038;-61
2022/09/21 05:06:21;;;;;;;11.93;10.70;;;20.20;99.90;;;;;;6157076;28;89113;-61
2022/09/21 05:12:41;;;;;;;10.50;9.50;;;20.20;99.90;;;;;;6132946;28;89454;-61
2022/09/21 05:15:42;;;;;;;10.80;9.70;;;20.20;99.90;;;;;;6168377;28;89126;-61
2022/09/21 05:18:45;;;;;;;10.75;9.65;;;20.20;99.90;;;;;;6156271;28;89074;-61
2022/09/21 05:21:48;;;;;;;10.80;9.70;;;20.20;99.90;;;;;;6135150;28;89175;-61
2022/09/21 05:24:50;;;;;;;10.73;9.63;;;20.20;99.90;;;;;;6134015;28;88324;-61
2022/09/21 05:27:52;;;;;;;10.93;9.80;;;20.20;99.90;;;;;;6147150;28;89103;-61
2022/09/21 05:30:59;;;;;;;10.60;9.50;;;20.20;99.90;;;;;;6157721;28;89352;-61
2022/09/21 05:34:07;;;;;;;10.50;9.50;;;20.20;99.90;;;;;;6145389;28;89980;-62
2022/09/21 05:37:20;;;;;;;10.77;9.68;;;20.20;99.90;;;;;;6151615;28;91649;-61
2022/09/21 05:40:22;;;;;;;10.00;9.00;;;20.20;99.90;;;;;;6142233;28;90341;-61
2022/09/21 05:43:25;;;;;;;10.13;9.13;;;20.20;99.90;;;;;;6144892;28;89166;-61
2022/09/21 05:46:38;;;;;;;10.07;9.05;;;20.20;99.90;;;;;;6138162;28;87953;-61
2022/09/21 05:49:50;;;;;;;10.52;9.40;;;20.20;99.90;;;;;;6155487;28;89188;-62
2022/09/21 05:53:04;;;;;;;9.55;8.65;;;20.20;99.90;;;;;;6138984;28;89155;-62
2022/09/21 05:56:15;;;;;;;9.63;8.57;;;20.20;99.90;;;;;;6153685;28;88204;-61
2022/09/21 05:59:41;;;;;;;10.02;9.02;;;20.10;99.90;;;;;;6149370;28;89450;-62
2022/09/21 06:03:11;;;;;;;10.70;9.60;;;20.10;99.90;;;;;;6155319;28;89336;-61
2022/09/21 06:06:13;;;;;;;10.07;9.05;;;20.10;99.90;;;;;;6154392;28;88977;-61
2022/09/21 06:09:16;;;;;;;10.35;9.23;;;20.20;99.90;;;;;;6158684;28;89168;-62
2022/09/21 06:12:18;;;;;;;9.95;8.95;;;20.20;99.90;;;;;;6149703;28;89585;-61
2022/09/21 06:15:20;;;;;;;9.85;8.85;;;20.20;99.90;;;;;;6173350;28;89012;-62
2022/09/21 06:18:22;;;;;;;9.88;8.88;;;20.20;99.90;;;;;;6160555;28;89032;-62
2022/09/21 06:21:24;;;;;;;9.88;8.80;;;20.20;99.90;;;;;;6142069;28;89080;-62
2022/09/21 06:24:27;;;;;;;10.00;8.98;;;20.20;99.90;;;;;;6148337;28;89157;-62
2022/09/21 06:27:29;;;;;;;9.02;8.13;;;20.20;99.90;;;;;;6137597;28;87183;-62
2022/09/21 06:30:33;;;;;;;9.00;8.10;;;20.20;99.90;;;;;;6159206;28;89055;-62
2022/09/21 06:33:36;;;;;;;8.65;7.82;;;20.10;99.90;;;;;;6159751;28;89110;-62
2022/09/21 06:36:38;;;;;;;9.50;8.50;;;20.20;99.90;;;;;;6151725;28;89996;-62
2022/09/21 06:39:42;;;;;;;9.57;8.57;;;20.20;99.90;;;;;;6160212;28;89078;-62
2022/09/21 06:42:44;;;;;;;9.02;8.10;;;20.20;99.90;;;;;;6140187;28;89580;-62
2022/09/21 06:45:54;;;;;;;9.13;8.23;;;20.20;99.90;;;;;;6151874;28;89062;-62
2022/09/21 06:48:56;;;;;;;8.95;8.05;;;20.20;99.90;;;;;;6159871;28;87940;-62
2022/09/21 06:51:58;;;;;;;8.77;7.88;;;20.20;99.90;;;;;;6158593;28;89118;-62
2022/09/21 06:55:01;;;;;;;8.60;7.80;;;20.20;99.90;;;;;;6148679;28;89023;-62
2022/09/21 06:58:04;;;;;;;8.57;7.78;;;20.20;99.90;;;;;;6154712;28;88372;-62
2022/09/21 07:01:07;;;;;;;8.63;7.82;;;20.20;99.90;;;;;;6151484;28;89081;-62
2022/09/21 07:04:09;;;;;;;9.32;8.30;;;20.20;99.90;;;;;;6159405;28;89106;-62
2022/09/21 07:07:11;;;;;;;8.35;7.35;;;20.20;99.90;;;;;;6150088;28;90036;-62
2022/09/21 07:10:14;;;;;;;9.85;8.23;;;20.10;99.90;;;;;;6152364;28;89384;-62
2022/09/21 07:13:17;;;;;;;8.35;7.47;;;20.20;99.90;;;;;;6154948;28;89338;-62
2022/09/21 07:16:20;;;;;;;8.82;7.70;;;20.10;99.90;;;;;;6168948;28;89292;-62
2022/09/21 07:19:22;;;;;;;8.68;7.75;;;20.20;99.90;;;;;;6156905;28;89041;-62
2022/09/21 07:22:24;;;;;;;8.45;7.57;;;20.20;99.90;;;;;;6143932;28;89269;-62
2022/09/21 07:25:27;;;;;;;8.48;7.57;;;20.20;99.90;;;;;;6159328;28;89034;-62
2022/09/21 07:28:30;;;;;;;7.80;7.03;;;20.10;99.90;;;;;;6159589;28;88283;-61
2022/09/21 07:31:32;;;;;;;7.82;7.03;;;20.20;99.90;;;;;;6146718;28;89442;-62
2022/09/21 07:34:36;;;;;;;8.25;7.45;;;20.20;99.90;;;;;;6158871;28;89232;-62
2022/09/21 07:37:38;;;;;;;8.13;7.25;;;20.20;99.90;;;;;;6149335;28;90099;-61
2022/09/21 07:40:41;;;;;;;8.00;7.18;;;20.20;99.90;;;;;;6155702;28;88985;-61
2022/09/21 07:43:43;;;;;;;8.00;7.20;;;20.20;99.90;;;;;;6153343;28;89177;-62
2022/09/21 07:46:46;;;;;;;8.25;7.45;;;20.20;99.90;;;;;;6158483;28;87892;-62
2022/09/21 07:49:48;;;;;;;8.15;6.80;;;20.20;99.90;;;;;;6151463;28;87964;-62
2022/09/21 07:52:50;;;;;;;7.97;7.13;;;20.20;99.90;;;;;;6151033;28;89153;-62
2022/09/21 07:55:53;;;;;;;7.95;7.15;;;20.20;99.90;;;;;;6157829;28;89010;-62
2022/09/21 07:59:06;;;;;;;8.10;7.30;;;20.10;99.90;;;;;;6141669;28;87127;-62
2022/09/21 08:02:08;;;;;;;7.65;6.85;;;20.10;99.90;;;;;;6152253;28;88976;-62
2022/09/21 08:05:10;;;;;;;7.72;6.95;;;20.20;99.90;;;;;;6151450;28;89050;-62
2022/09/21 08:08:12;;;;;;;7.75;6.90;;;20.20;99.90;;;;;;6157465;28;90044;-62
2022/09/21 08:11:16;;;;;;;7.80;7.00;;;20.20;99.90;;;;;;6151486;28;89008;-62
2022/09/21 08:14:19;;;;;;;7.40;6.70;;;20.20;99.90;;;;;;6163891;28;89104;-62
2022/09/21 08:17:21;;;;;;;7.60;6.80;;;20.20;99.90;;;;;;6159583;28;89046;-62
2022/09/21 08:20:23;;;;;;;7.07;6.38;;;20.20;99.90;;;;;;6152946;28;89004;-62
2022/09/21 08:23:27;;;;;;;6.85;6.25;;;20.20;99.90;;;;;;6158267;28;89161;-62
2022/09/21 08:26:31;;;;;;;7.28;6.53;;;20.20;99.90;;;;;;6142567;28;89166;-62
2022/09/21 08:29:34;;;;;;;7.55;6.40;;;20.20;99.90;;;;;;6149450;28;88375;-62
2022/09/21 08:32:36;;;;;;;6.68;5.97;;;20.20;99.90;;;;;;6157233;28;89194;-62
2022/09/21 08:35:38;;;;;;;7.22;6.28;;;20.20;99.90;;;;;;6156491;28;89139;-62
2022/09/21 08:38:40;;;;;;;7.47;6.78;;;20.20;99.90;;;;;;6152295;28;90309;-62
2022/09/21 08:42:10;;;;;;;6.78;6.07;;;20.20;99.90;;;;;;6157317;28;88929;-62
2022/09/21 08:45:16;;;;;;;6.60;5.90;;;20.20;99.90;;;;;;6153060;28;89253;-62
2022/09/21 08:48:23;;;;;;;6.72;6.03;;;20.20;99.90;;;;;;6144173;28;89020;-62
2022/09/21 08:51:29;;;;;;;6.78;6.07;;;20.20;99.90;;;;;;6157758;28;89176;-62
2022/09/21 08:54:38;;;;;;;6.65;5.97;;;20.20;99.90;;;;;;6156572;28;89195;-62
2022/09/21 08:57:42;;;;;;;6.72;6.00;;;20.20;99.90;;;;;;6143493;28;89072;-62
2022/09/21 09:00:44;;;;;;;6.53;5.85;;;20.20;99.90;;;;;;6145142;28;88360;-62
2022/09/21 09:03:56;;;;;;;6.82;6.13;;;20.20;99.90;;;;;;6157746;28;89076;-61
2022/09/21 09:07:09;;;;;;;6.35;5.75;;;20.20;99.90;;;;;;6146324;28;89103;-62
2022/09/21 09:10:30;;;;;;;6.40;5.68;;;20.20;99.90;;;;;;6149747;28;90055;-61
2022/09/21 09:13:47;;;;;;;6.10;5.40;;;20.20;99.90;;;;;;6150554;28;88513;-62
2022/09/21 09:17:03;;;;;;;6.30;5.65;;;20.20;99.90;;;;;;6156909;28;88016;-62
2022/09/21 09:20:12;;;;;;;6.47;5.85;;;20.20;99.90;;;;;;6148134;28;89312;-62
2022/09/21 09:23:21;;;;;;;6.15;5.55;;;20.20;99.90;;;;;;6146026;28;88315;-61
2022/09/21 09:26:29;;;;;;;6.55;5.57;;;20.20;99.90;;;;;;6133549;28;89315;-62
2022/09/21 09:29:40;;;;;;;6.32;5.63;;;20.20;99.90;;;;;;6145693;28;89033;-62
2022/09/21 09:32:49;;;;;;;6.18;5.57;;;20.20;99.90;;;;;;6149660;28;88363;-62
2022/09/21 09:35:57;;;;;;;6.07;5.47;;;20.30;99.90;;;;;;6144070;28;89054;-62
2022/09/21 09:39:04;;;;;;;5.88;5.28;;;20.20;99.90;;;;;;6149869;28;89276;-62
2022/09/21 09:42:24;;;;;;;6.25;5.57;;;20.30;99.90;;;;;;6148590;28;90381;-62
2022/09/21 09:45:47;;;;;;;5.80;5.20;;;20.30;99.90;;;;;;6149943;28;89123;-62
2022/09/21 09:49:15;;;;;;;6.03;5.35;;;20.20;99.90;;;;;;6150994;28;87871;-62
2022/09/21 09:52:17;;;;;;;6.38;5.50;;;20.20;99.90;;;;;;6148452;28;89172;-62
2022/09/21 09:55:23;;;;;;;6.00;5.40;;;20.20;99.90;;;;;;6147436;28;89062;-62
2022/09/21 09:58:34;;;;;;;6.35;5.35;;;20.30;99.90;;;;;;6149294;28;89069;-62
2022/09/21 10:01:40;;;;;;;5.75;5.15;;;20.20;99.90;;;;;;6160919;28;89099;-62
2022/09/21 10:05:00;;;;;;;5.90;5.30;;;20.20;99.90;;;;;;6148260;28;88367;-62
2022/09/21 10:08:02;;;;;;;5.68;4.93;;;20.20;99.90;;;;;;6149110;28;89039;-62
2022/09/21 10:11:05;;;;;;;5.80;5.20;;;20.20;99.90;;;;;;6136905;28;89471;-62
2022/09/21 10:14:09;;;;;;;5.47;4.97;;;20.30;99.90;;;;;;6155856;28;90036;-62
2022/09/21 10:17:17;;;;;;;5.30;4.80;;;20.20;99.90;;;;;;6155567;28;89065;-62
2022/09/21 10:20:20;;;;;;;5.15;4.65;;;20.30;99.90;;;;;;6147473;28;87752;-62
2022/09/21 10:23:22;;;;;;;5.38;4.88;;;20.20;99.90;;;;;;6153473;28;89313;-62
2022/09/21 10:26:24;;;;;;;5.68;5.05;;;20.30;99.90;;;;;;6147801;28;89039;-62
2022/09/21 10:29:32;;;;;;;5.80;5.20;;;20.30;99.90;;;;;;6146907;28;89441;-62
2022/09/21 10:32:37;;;;;;;5.47;4.95;;;20.20;99.90;;;;;;6159048;28;89128;-62
2022/09/21 10:35:50;;;;;;;5.05;4.55;;;20.20;99.90;;;;;;6159012;28;91260;-62
2022/09/21 10:38:52;;;;;;;5.32;4.82;;;20.20;99.90;;;;;;6155194;28;88329;-63
2022/09/21 10:41:59;;;;;;;5.07;4.57;;;20.30;99.90;;;;;;6152453;28;89232;-62
2022/09/21 10:45:13;;;;;;;5.32;4.82;;;20.20;99.90;;;;;;6155896;28;90101;-62
2022/09/21 10:48:21;;;;;;;5.30;4.80;;;20.20;99.90;;;;;;6158758;28;89103;-62
2022/09/21 10:51:29;;;;;;;5.20;4.65;;;20.30;99.90;;;;;;6159832;28;88970;-63
2022/09/21 10:54:33;;;;;;;4.85;4.32;;;20.20;99.90;;;;;;6153157;28;89130;-62
2022/09/21 10:57:35;;;;;;;5.57;4.78;;;20.20;99.90;;;;;;6139779;28;89104;-62
2022/09/21 11:00:42;;;;;;;5.53;4.95;;;20.20;99.90;;;;;;6148961;28;88990;-62
2022/09/21 11:03:57;;;;;;;4.93;4.38;;;20.30;99.90;;;;;;6148264;28;89108;-62
2022/09/21 11:07:07;;;;;;;4.88;4.38;;;20.30;99.90;;;;;;6154644;28;88219;-62
2022/09/21 11:10:16;;;;;;;4.57;4.18;;;20.20;99.90;;;;;;6153426;28;87992;-62
2022/09/21 11:13:28;;;;;;;5.75;4.95;;;20.30;99.90;;;;;;6155322;28;89320;-62
2022/09/21 11:16:35;;;;;;;5.65;4.97;;;20.30;99.90;;;;;;6163911;28;89911;-62
2022/09/21 11:19:44;;;;;;;4.93;4.43;;;20.30;99.90;;;;;;6136170;28;89116;-62
2022/09/21 11:22:55;;;;;;;4.75;4.30;;;20.20;99.90;;;;;;6147958;28;89123;-62
2022/09/21 11:26:03;;;;;;;4.85;4.35;;;20.20;99.90;;;;;;6148124;28;88958;-62
2022/09/21 11:29:09;;;;;;;4.60;4.20;;;20.30;99.90;;;;;;6146614;28;91903;-61
2022/09/21 11:32:27;;;;;;;4.47;4.07;;;20.20;99.90;;;;;;6146462;28;89067;-62
2022/09/21 11:35:46;;;;;;;4.60;4.20;;;20.20;99.90;;;;;;6146400;28;89078;-62
2022/09/21 11:38:56;;;;;;;4.30;3.90;;;20.20;99.90;;;;;;6147622;28;88417;-62
2022/09/21 11:42:10;;;;;;;4.40;4.00;;;20.30;99.90;;;;;;6156921;28;89037;-62
2022/09/21 11:45:31;;;;;;;4.63;4.20;;;20.30;99.90;;;;;;6158392;28;89248;-62
2022/09/21 11:48:45;;;;;;;4.40;4.00;;;20.30;99.90;;;;;;6146992;28;90121;-62
2022/09/21 11:52:04;;;;;;;5.00;4.25;;;20.30;99.90;;;;;;6147991;28;89072;-62
2022/09/21 11:55:23;;;;;;;4.22;3.83;;;20.30;99.90;;;;;;6147637;28;89102;-62
2022/09/21 11:58:32;;;;;;;4.85;4.32;;;20.30;99.90;;;;;;6148522;28;89057;-62
2022/09/21 12:01:54;;;;;;;5.03;4.18;;;20.30;99.90;;;;;;6147293;28;89181;-62
2022/09/21 12:05:02;;;;;;;4.75;4.25;;;20.30;99.90;;;;;;6146499;28;89112;-62
2022/09/21 12:08:34;;;;;;;4.70;3.92;;;20.30;99.90;;;;;;6147218;28;89054;-62
2022/09/21 12:11:42;;;;;;;4.65;4.00;;;20.30;99.90;;;;;;6150220;28;88439;-62
2022/09/21 12:14:52;;;;;;;4.60;4.10;;;20.30;99.90;;;;;;6170719;28;89112;-62
2022/09/21 12:18:04;;;;;;;4.40;4.00;;;20.30;99.90;;;;;;6156672;28;87966;-62
2022/09/21 12:21:13;;;;;;;4.50;4.00;;;20.20;99.90;;;;;;6133718;28;90012;-62
2022/09/21 12:24:21;;;;;;;4.28;3.88;;;20.30;99.90;;;;;;6145612;28;93278;-62
2022/09/21 12:27:29;;;;;;;4.10;3.70;;;20.30;99.90;;;;;;6157134;28;88071;-63
2022/09/21 12:30:33;;;;;;;4.93;3.90;;;20.30;99.90;;;;;;6157321;28;89316;-62
2022/09/21 12:33:41;;;;;;;4.10;3.70;;;20.30;99.90;;;;;;6155160;28;87988;-62
2022/09/21 12:36:50;;;;;;;4.40;4.00;;;20.30;99.90;;;;;;6156564;28;89292;-62
2022/09/21 12:39:58;;;;;;;4.13;3.72;;;20.20;99.90;;;;;;6157388;28;89614;-62
2022/09/21 12:43:07;;;;;;;4.10;3.70;;;20.30;99.90;;;;;;6158365;28;88501;-62
2022/09/21 12:46:13;;;;;;;4.22;3.83;;;20.30;99.90;;;;;;6152117;28;89578;-62
2022/09/21 12:49:20;;;;;;;4.68;4.18;;;20.30;99.90;;;;;;6148311;28;89296;-62
2022/09/21 12:52:25;;;;;;;4.20;3.80;;;20.30;99.90;;;;;;6156925;28;90077;-62
2022/09/21 12:55:40;;;;;;;3.90;3.50;;;20.30;99.90;;;;;;6156604;28;89395;-62
2022/09/21 12:58:50;;;;;;;3.90;3.53;;;20.30;99.90;;;;;;6149035;28;89213;-62
2022/09/21 13:01:58;;;;;;;4.60;3.72;;;20.30;99.90;;;;;;6153189;28;89107;-62
2022/09/21 13:05:08;;;;;;;4.00;3.60;;;20.30;99.90;;;;;;6146880;28;89111;-62
2022/09/21 13:08:12;;;;;;;4.13;3.60;;;20.30;99.90;;;;;;6147609;28;88297;-62
2022/09/21 13:11:20;;;;;;;3.70;3.38;;;20.30;99.90;;;;;;6146741;28;88897;-62
2022/09/21 13:14:23;;;;;;;3.95;3.55;;;20.30;99.90;;;;;;6146211;28;88771;-62
2022/09/21 13:17:29;;;;;;;4.03;3.63;;;20.30;99.90;;;;;;6143217;28;89108;-62
2022/09/21 13:20:36;;;;;;;3.80;3.40;;;20.30;99.90;;;;;;6150322;28;89078;-62
2022/09/21 13:23:41;;;;;;;4.13;3.58;;;20.30;99.90;;;;;;6156161;28;92409;-62
2022/09/21 13:26:52;;;;;;;4.10;3.45;;;20.30;99.90;;;;;;6153030;28;89107;-62
2022/09/21 13:30:28;;;;;;;3.83;3.50;;;20.30;99.90;;;;;;6150545;28;89197;-62
2022/09/21 13:33:32;;;;;;;3.63;3.30;;;20.30;99.90;;;;;;6143630;28;89363;-62
2022/09/21 13:36:36;;;;;;;3.85;3.45;;;20.30;99.90;;;;;;6155077;28;89096;-62
2022/09/21 13:39:43;;;;;;;3.80;3.50;;;20.30;99.90;;;;;;6144419;28;89079;-62
2022/09/21 13:42:48;;;;;;;4.05;3.65;;;20.30;99.90;;;;;;6156652;28;89214;-62
2022/09/21 13:45:55;;;;;;;3.50;3.20;;;20.20;99.90;;;;;;6157053;28;88578;-62
2022/09/21 13:48:59;;;;;;;5.20;4.10;;;20.30;99.90;;;;;;6153502;28;89321;-62
2022/09/21 13:52:06;;;;;;;3.70;3.35;;;20.30;99.90;;;;;;6145692;28;89517;-62
2022/09/21 13:55:22;;;;;;;3.50;3.20;;;20.30;99.90;;;;;;6156675;28;88858;-62
2022/09/21 13:58:29;;;;;;;3.78;3.40;;;20.30;99.90;;;;;;6145150;28;89091;-62
2022/09/21 14:01:34;;;;;;;3.25;2.95;;;20.30;99.90;;;;;;6156538;28;89163;-62
2022/09/21 14:04:38;;;;;;;3.50;3.20;;;20.30;99.90;;;;;;6133958;28;87959;-62
2022/09/21 14:07:40;;;;;;;3.55;3.20;;;20.30;99.90;;;;;;6153203;28;89546;-63
2022/09/21 14:10:51;;;;;;;3.40;3.10;;;20.30;99.90;;;;;;6156041;28;89138;-62
2022/09/21 14:14:17;;;;;;;3.25;2.95;;;20.30;99.90;;;;;;6155732;28;89103;-63
2022/09/21 14:17:36;;;;;;;3.33;2.97;;;20.30;99.90;;;;;;6157830;28;88256;-63
2022/09/21 14:20:38;;;;;;;3.40;3.10;;;20.30;99.90;;;;;;6147267;28;89030;-62
2022/09/21 14:23:40;;;;;;;3.28;2.97;;;20.20;99.90;;;;;;6148949;28;89120;-62
2022/09/21 14:26:54;;;;;;;3.58;3.03;;;20.20;99.90;;;;;;6152249;28;90319;-62
2022/09/21 14:30:03;;;;;;;3.63;3.13;;;20.30;99.90;;;;;;6159716;28;89138;-62
2022/09/21 14:33:32;;;;;;;3.50;3.20;;;20.20;99.90;;;;;;6145022;28;89893;-62
2022/09/21 14:36:40;;;;;;;3.38;3.08;;;20.30;99.90;;;;;;6150993;28;89243;-62
2022/09/21 14:39:45;;;;;;;3.03;2.72;;;20.30;99.90;;;;;;6160118;28;88282;-62
2022/09/21 14:42:48;;;;;;;3.85;3.35;;;20.30;99.90;;;;;;6148320;28;89131;-62
2022/09/21 14:46:17;;;;;;;3.40;3.10;;;20.30;99.90;;;;;;6152122;28;89169;-62
2022/09/21 14:49:40;;;;;;;3.45;3.10;;;20.30;99.90;;;;;;6133598;28;88731;-62
2022/09/21 14:52:58;;;;;;;2.70;2.50;;;20.30;99.90;;;;;;6155331;28;89080;-62
2022/09/21 14:56:21;;;;;;;3.35;3.05;;;20.30;99.90;;;;;;6155146;28;89167;-62
2022/09/21 14:59:46;;;;;;;3.15;2.85;;;20.30;99.90;;;;;;6156953;28;90021;-63
2022/09/21 15:03:05;;;;;;;3.38;3.00;;;20.30;99.90;;;;;;6151826;28;89084;-62
2022/09/21 15:13:42;;;;;;;4.18;3.30;;;20.20;99.90;;;;;;6156652;28;88593;-62
2022/09/21 15:16:47;;;;;;;3.22;2.78;;;20.20;99.90;;;;;;6153181;28;89202;-62
2022/09/21 15:19:51;;;;;;;3.40;2.90;;;20.20;99.90;;;;;;6152710;28;89145;-62
2022/09/21 15:22:54;;;;;;;3.38;2.70;;;20.20;99.90;;;;;;6154240;28;88383;-62
2022/09/21 15:26:01;;;;;;;3.20;2.90;;;20.30;99.90;;;;;;6158749;28;89472;-62
2022/09/21 15:29:06;;;;;;;3.20;2.90;;;20.30;99.90;;;;;;6157693;28;89253;-62
2022/09/21 15:32:08;;;;;;;3.30;3.00;;;20.30;99.90;;;;;;6140549;28;90067;-62
2022/09/21 15:35:18;;;;;;;3.30;3.00;;;20.20;99.90;;;;;;6153843;28;89619;-62
2022/09/21 15:38:33;;;;;;;3.58;3.00;;;20.30;99.90;;;;;;6149262;28;89017;-62
2022/09/21 15:41:41;;;;;;;3.10;2.70;;;20.20;99.90;;;;;;6156835;28;89199;-62
2022/09/21 15:44:47;;;;;;;2.92;2.63;;;20.20;99.90;;;;;;6149558;28;89052;-62
2022/09/21 15:47:49;;;;;;;3.05;2.75;;;20.30;99.90;;;;;;6153108;28;89007;-62
2022/09/21 15:50:57;;;;;;;3.05;2.75;;;20.20;99.90;;;;;;6149822;28;89061;-62
2022/09/21 15:54:05;;;;;;;3.22;2.92;;;20.30;99.90;;;;;;6145700;28;88177;-62
2022/09/21 15:57:25;;;;;;;2.80;2.50;;;20.30;99.90;;;;;;6146017;28;88980;-62
2022/09/21 16:00:30;;;;;;;2.90;2.58;;;20.30;99.90;;;;;;6157055;28;89034;-62
2022/09/21 16:03:32;;;;;;;2.97;2.60;;;20.20;99.90;;;;;;6147275;28;90335;-62
2022/09/21 16:06:40;;;;;;;3.08;2.78;;;20.20;99.90;;;;;;6153918;28;89162;-62
2022/09/21 16:09:44;;;;;;;3.35;2.90;;;20.20;99.90;;;;;;6157531;28;89796;-62
2022/09/21 16:12:47;;;;;;;2.72;2.53;;;20.20;99.90;;;;;;6146765;28;89037;-62
2022/09/21 16:16:00;;;;;;;2.78;2.58;;;20.20;99.90;;;;;;6160853;28;90816;-62